createdAt,value
2018-05-13T00:00:03.390Z,14.61
2018-05-13T00:00:07.737Z,14.61
2018-05-13T00:00:12.076Z,14.62
2018-05-13T00:00:16.396Z,14.62
2018-05-13T00:00:20.609Z,14.61
2018-05-13T00:00:24.710Z,14.61
2018-05-13T00:00:28.912Z,14.61
2018-05-13T00:00:33.226Z,14.61
2018-05-13T00:00:37.544Z,14.61
2018-05-13T00:00:41.758Z,14.61
2018-05-13T00:00:45.974Z,14.61
2018-05-13T00:00:50.191Z,14.61
2018-05-13T00:00:54.295Z,14.6
2018-05-13T00:00:58.610Z,14.61
2018-05-13T00:01:02.713Z,14.61
2018-05-13T00:01:06.927Z,14.61
2018-05-13T00:01:11.247Z,14.61
2018-05-13T00:01:15.570Z,14.6
2018-05-13T00:01:19.672Z,14.62
2018-05-13T00:01:24.007Z,14.61
2018-05-13T00:01:28.115Z,14.61
2018-05-13T00:01:32.319Z,14.61
2018-05-13T00:01:36.635Z,14.6
2018-05-13T00:01:40.849Z,14.61
2018-05-13T00:01:45.055Z,14.6
2018-05-13T00:01:49.269Z,14.61
2018-05-13T00:01:53.479Z,14.6
2018-05-13T00:01:57.792Z,14.6
2018-05-13T00:02:02.105Z,14.6
2018-05-13T00:02:06.215Z,14.6
2018-05-13T00:02:42.536Z,14.61
2018-05-13T00:02:46.637Z,14.6
2018-05-13T00:02:50.970Z,14.6
2018-05-13T00:02:55.223Z,14.6
2018-05-13T00:02:59.435Z,14.61
2018-05-13T00:03:03.427Z,14.6
2018-05-13T00:03:07.750Z,14.6
2018-05-13T00:03:11.743Z,14.61
2018-05-13T00:03:15.955Z,14.6
2018-05-13T00:03:20.172Z,14.61
2018-05-13T00:03:24.499Z,14.6
2018-05-13T00:03:28.727Z,14.61
2018-05-13T00:03:33.042Z,14.61
2018-05-13T00:03:37.037Z,14.6
2018-05-13T00:03:41.147Z,14.6
2018-05-13T00:03:45.478Z,14.6
2018-05-13T00:03:49.796Z,14.6
2018-05-13T00:03:54.008Z,14.6
2018-05-13T00:03:58.224Z,14.6
2018-05-13T00:04:02.491Z,14.6
2018-05-13T00:04:06.814Z,14.61
2018-05-13T00:04:10.921Z,14.61
2018-05-13T00:04:15.137Z,14.6
2018-05-13T00:04:19.236Z,14.6
2018-05-13T00:04:23.466Z,14.61
2018-05-13T00:04:27.681Z,14.61
2018-05-13T00:04:31.888Z,14.6
2018-05-13T00:04:36.213Z,14.61
2018-05-13T00:04:40.337Z,14.61
2018-05-13T00:04:44.652Z,14.6
2018-05-13T00:04:48.752Z,14.61
2018-05-13T00:04:52.860Z,14.6
2018-05-13T00:04:57.074Z,14.6
2018-05-13T00:05:01.392Z,14.6
2018-05-13T00:05:05.511Z,14.6
2018-05-13T00:05:09.713Z,14.6
2018-05-13T00:05:14.466Z,14.6
2018-05-13T00:05:18.702Z,14.6
2018-05-13T00:05:23.470Z,14.6
2018-05-13T00:05:27.788Z,14.6
2018-05-13T00:05:32.004Z,14.6
2018-05-13T00:05:36.209Z,14.59
2018-05-13T00:05:40.412Z,14.6
2018-05-13T00:05:44.725Z,14.59
2018-05-13T00:05:48.941Z,14.59
2018-05-13T00:05:53.259Z,14.59
2018-05-13T00:05:57.366Z,14.59
2018-05-13T00:06:01.587Z,14.59
2018-05-13T00:06:05.585Z,14.59
2018-05-13T00:06:09.757Z,14.59
2018-05-13T00:06:13.997Z,14.58
2018-05-13T00:06:18.324Z,14.59
2018-05-13T00:06:22.539Z,14.59
2018-05-13T00:06:26.645Z,14.59
2018-05-13T00:06:30.756Z,14.59
2018-05-13T00:06:34.859Z,14.59
2018-05-13T00:06:39.067Z,14.58
2018-05-13T00:06:43.385Z,14.58
2018-05-13T00:06:47.601Z,14.59
2018-05-13T00:06:51.810Z,14.58
2018-05-13T00:06:56.137Z,14.58
2018-05-13T00:07:00.463Z,14.59
2018-05-13T00:07:04.456Z,14.59
2018-05-13T00:07:08.574Z,14.58
2018-05-13T00:07:12.993Z,14.58
2018-05-13T00:07:17.201Z,14.58
2018-05-13T00:07:21.411Z,14.58
2018-05-13T00:07:25.623Z,14.58
2018-05-13T00:07:29.938Z,14.58
2018-05-13T00:07:34.159Z,14.58
2018-05-13T00:07:38.542Z,14.58
2018-05-13T00:07:42.878Z,14.58
2018-05-13T00:07:47.091Z,14.58
2018-05-13T00:07:51.415Z,14.58
2018-05-13T00:07:55.629Z,14.58
2018-05-13T00:07:59.840Z,14.58
2018-05-13T00:08:04.096Z,14.58
2018-05-13T00:08:08.415Z,14.57
2018-05-13T00:08:12.625Z,14.58
2018-05-13T00:08:16.856Z,14.58
2018-05-13T00:08:20.856Z,14.57
2018-05-13T00:08:24.870Z,14.57
2018-05-13T00:08:29.074Z,14.57
2018-05-13T00:08:33.396Z,14.57
2018-05-13T00:08:37.606Z,14.57
2018-05-13T00:08:41.927Z,14.57
2018-05-13T00:08:46.026Z,14.56
2018-05-13T00:08:50.234Z,14.57
2018-05-13T00:08:54.274Z,14.57
2018-05-13T00:08:58.486Z,14.57
2018-05-13T00:09:02.702Z,14.56
2018-05-13T00:09:07.103Z,14.57
2018-05-13T00:09:11.208Z,14.57
2018-05-13T00:09:15.418Z,14.56
2018-05-13T00:09:19.419Z,14.58
2018-05-13T00:09:23.623Z,14.57
2018-05-13T00:09:27.729Z,14.56
2018-05-13T00:09:31.939Z,14.57
2018-05-13T00:09:36.148Z,14.58
2018-05-13T00:09:40.466Z,14.56
2018-05-13T00:09:44.671Z,14.57
2018-05-13T00:09:48.995Z,14.57
2018-05-13T00:09:53.095Z,14.57
2018-05-13T00:09:57.411Z,14.56
2018-05-13T00:10:01.693Z,14.57
2018-05-13T00:10:05.686Z,14.56
2018-05-13T00:10:09.897Z,14.57
2018-05-13T00:10:14.119Z,14.56
2018-05-13T00:10:18.338Z,14.56
2018-05-13T00:10:22.444Z,14.56
2018-05-13T00:10:26.757Z,14.56
2018-05-13T00:10:31.087Z,14.56
2018-05-13T00:10:35.295Z,14.55
2018-05-13T00:10:39.618Z,14.56
2018-05-13T00:10:43.831Z,14.56
2018-05-13T00:10:48.060Z,14.56
2018-05-13T00:10:52.266Z,14.57
2018-05-13T00:10:56.260Z,14.56
2018-05-13T00:11:00.375Z,14.56
2018-05-13T00:11:04.609Z,14.56
2018-05-13T00:11:08.931Z,14.56
2018-05-13T00:11:13.155Z,14.56
2018-05-13T00:11:17.372Z,14.57
2018-05-13T00:11:21.365Z,14.56
2018-05-13T00:11:25.690Z,14.56
2018-05-13T00:11:30.036Z,14.56
2018-05-13T00:11:34.362Z,14.56
2018-05-13T00:11:38.672Z,14.56
2018-05-13T00:11:42.991Z,14.56
2018-05-13T00:11:47.101Z,14.56
2018-05-13T00:11:51.430Z,14.55
2018-05-13T00:11:55.747Z,14.56
2018-05-13T00:11:59.959Z,14.56
2018-05-13T00:12:04.113Z,14.56
2018-05-13T00:12:08.325Z,14.55
2018-05-13T00:12:12.430Z,14.56
2018-05-13T00:12:16.655Z,14.55
2018-05-13T00:12:20.971Z,14.56
2018-05-13T00:12:25.305Z,14.56
2018-05-13T00:12:29.511Z,14.56
2018-05-13T00:12:33.721Z,14.55
2018-05-13T00:12:37.861Z,14.56
2018-05-13T00:12:42.070Z,14.56
2018-05-13T00:12:46.395Z,14.55
2018-05-13T00:12:50.610Z,14.56
2018-05-13T00:12:54.931Z,14.56
2018-05-13T00:12:59.135Z,14.55
2018-05-13T00:13:03.403Z,14.55
2018-05-13T00:13:07.615Z,14.55
2018-05-13T00:13:11.938Z,14.55
2018-05-13T00:13:16.254Z,14.55
2018-05-13T00:13:20.469Z,14.55
2018-05-13T00:13:24.685Z,14.55
2018-05-13T00:13:28.907Z,14.55
2018-05-13T00:13:33.220Z,14.55
2018-05-13T00:13:37.430Z,14.55
2018-05-13T00:13:41.743Z,14.54
2018-05-13T00:13:45.981Z,14.55
2018-05-13T00:13:50.311Z,14.55
2018-05-13T00:13:54.642Z,14.54
2018-05-13T00:13:58.745Z,14.55
2018-05-13T00:14:03.074Z,14.54
2018-05-13T00:14:07.394Z,14.55
2018-05-13T00:14:11.603Z,14.54
2018-05-13T00:14:15.818Z,14.54
2018-05-13T00:14:20.131Z,14.55
2018-05-13T00:14:24.138Z,14.54
2018-05-13T00:14:28.357Z,14.54
2018-05-13T00:14:32.459Z,14.54
2018-05-13T00:14:36.864Z,14.53
2018-05-13T00:14:41.179Z,14.54
2018-05-13T00:14:45.391Z,14.54
2018-05-13T00:14:49.497Z,14.53
2018-05-13T00:14:53.822Z,14.54
2018-05-13T00:14:58.033Z,14.54
2018-05-13T00:15:02.249Z,14.53
2018-05-13T00:15:06.140Z,14.53
2018-05-13T00:15:10.355Z,14.54
2018-05-13T00:15:14.563Z,14.53
2018-05-13T00:15:18.887Z,14.54
2018-05-13T00:15:23.098Z,14.53
2018-05-13T00:15:27.312Z,14.53
2018-05-13T00:15:31.586Z,14.53
2018-05-13T00:15:35.905Z,14.53
2018-05-13T00:15:39.790Z,14.53
2018-05-13T00:15:43.899Z,14.53
2018-05-13T00:15:48.217Z,14.52
2018-05-13T00:15:52.531Z,14.52
2018-05-13T00:15:56.851Z,14.52
2018-05-13T00:16:01.062Z,14.52
2018-05-13T00:16:05.284Z,14.52
2018-05-13T00:16:09.597Z,14.52
2018-05-13T00:16:13.918Z,14.52
2018-05-13T00:16:18.137Z,14.53
2018-05-13T00:16:22.344Z,14.53
2018-05-13T00:16:26.662Z,14.52
2018-05-13T00:16:30.768Z,14.52
2018-05-13T00:16:34.983Z,14.52
2018-05-13T00:16:39.081Z,14.52
2018-05-13T00:16:43.303Z,14.52
2018-05-13T00:16:47.619Z,14.51
2018-05-13T00:16:51.933Z,14.51
2018-05-13T00:16:56.249Z,14.51
2018-05-13T00:17:00.562Z,14.51
2018-05-13T00:17:04.497Z,14.51
2018-05-13T00:17:08.621Z,14.51
2018-05-13T00:17:12.833Z,14.5
2018-05-13T00:17:17.163Z,14.51
2018-05-13T00:17:21.158Z,14.51
2018-05-13T00:17:25.476Z,14.51
2018-05-13T00:17:29.683Z,14.5
2018-05-13T00:17:33.900Z,14.51
2018-05-13T00:17:38.000Z,14.49
2018-05-13T00:17:42.320Z,14.5
2018-05-13T00:17:46.524Z,14.5
2018-05-13T00:17:50.839Z,14.49
2018-05-13T00:17:55.168Z,14.5
2018-05-13T00:17:59.492Z,14.5
2018-05-13T00:18:03.398Z,14.49
2018-05-13T00:18:07.645Z,14.49
2018-05-13T00:18:11.857Z,14.49
2018-05-13T00:18:16.071Z,14.49
2018-05-13T00:18:20.173Z,14.5
2018-05-13T00:18:24.379Z,14.49
2018-05-13T00:18:28.702Z,14.48
2018-05-13T00:18:32.811Z,14.49
2018-05-13T00:18:37.031Z,14.48
2018-05-13T00:18:41.359Z,14.49
2018-05-13T00:18:45.681Z,14.49
2018-05-13T00:18:49.995Z,14.48
2018-05-13T00:18:54.210Z,14.48
2018-05-13T00:18:58.315Z,14.48
2018-05-13T00:19:02.535Z,14.48
2018-05-13T00:19:06.856Z,14.48
2018-05-13T00:19:11.065Z,14.48
2018-05-13T00:19:15.283Z,14.49
2018-05-13T00:19:19.605Z,14.47
2018-05-13T00:19:23.602Z,14.47
2018-05-13T00:19:27.755Z,14.47
2018-05-13T00:19:31.973Z,14.47
2018-05-13T00:19:36.304Z,14.47
2018-05-13T00:19:40.518Z,14.46
2018-05-13T00:19:44.836Z,14.46
2018-05-13T00:19:49.225Z,14.46
2018-05-13T00:19:53.322Z,14.46
2018-05-13T00:19:57.640Z,14.46
2018-05-13T00:20:01.856Z,14.46
2018-05-13T00:20:06.063Z,14.46
2018-05-13T00:20:10.280Z,14.47
2018-05-13T00:20:14.495Z,14.46
2018-05-13T00:20:18.597Z,14.46
2018-05-13T00:20:22.694Z,14.46
2018-05-13T00:20:27.065Z,14.47
2018-05-13T00:20:31.166Z,14.45
2018-05-13T00:20:35.375Z,14.45
2018-05-13T00:20:39.498Z,14.46
2018-05-13T00:20:43.608Z,14.46
2018-05-13T00:20:47.709Z,14.46
2018-05-13T00:20:51.935Z,14.46
2018-05-13T00:20:56.148Z,14.46
2018-05-13T00:21:00.249Z,14.47
2018-05-13T00:21:04.576Z,14.45
2018-05-13T00:21:08.683Z,14.45
2018-05-13T00:21:12.893Z,14.45
2018-05-13T00:21:17.108Z,14.45
2018-05-13T00:21:21.222Z,14.46
2018-05-13T00:21:25.442Z,14.45
2018-05-13T00:21:29.702Z,14.45
2018-05-13T00:21:34.016Z,14.44
2018-05-13T00:21:38.335Z,14.45
2018-05-13T00:21:42.435Z,14.45
2018-05-13T00:21:46.648Z,14.45
2018-05-13T00:21:50.970Z,14.45
2018-05-13T00:21:55.179Z,14.45
2018-05-13T00:21:59.393Z,14.44
2018-05-13T00:22:03.620Z,14.44
2018-05-13T00:22:07.836Z,14.44
2018-05-13T00:22:11.945Z,14.43
2018-05-13T00:22:16.272Z,14.44
2018-05-13T00:22:20.267Z,14.45
2018-05-13T00:22:24.553Z,14.44
2018-05-13T00:22:28.779Z,14.45
2018-05-13T00:22:32.990Z,14.45
2018-05-13T00:22:37.317Z,14.45
2018-05-13T00:22:41.418Z,14.46
2018-05-13T00:22:45.527Z,14.45
2018-05-13T00:22:49.640Z,14.44
2018-05-13T00:22:53.863Z,14.45
2018-05-13T00:22:58.075Z,14.44
2018-05-13T00:23:02.188Z,14.44
2018-05-13T00:23:06.418Z,14.44
2018-05-13T00:23:10.523Z,14.44
2018-05-13T00:23:14.741Z,14.45
2018-05-13T00:23:18.952Z,14.45
2018-05-13T00:23:22.965Z,14.45
2018-05-13T00:23:27.286Z,14.45
2018-05-13T00:23:31.605Z,14.45
2018-05-13T00:23:35.818Z,14.45
2018-05-13T00:23:40.033Z,14.44
2018-05-13T00:23:44.354Z,14.44
2018-05-13T00:23:48.566Z,14.45
2018-05-13T00:23:52.665Z,14.45
2018-05-13T00:23:56.776Z,14.46
2018-05-13T00:24:01.094Z,14.45
2018-05-13T00:24:05.094Z,14.45
2018-05-13T00:24:09.307Z,14.45
2018-05-13T00:24:13.626Z,14.45
2018-05-13T00:24:17.961Z,14.45
2018-05-13T00:24:21.955Z,14.46
2018-05-13T00:24:26.054Z,14.46
2018-05-13T00:24:30.156Z,14.46
2018-05-13T00:24:34.361Z,14.46
2018-05-13T00:24:38.765Z,14.45
2018-05-13T00:24:42.974Z,14.46
2018-05-13T00:24:47.299Z,14.46
2018-05-13T00:24:51.510Z,14.46
2018-05-13T00:24:55.731Z,14.46
2018-05-13T00:24:59.943Z,14.46
2018-05-13T00:25:04.280Z,14.46
2018-05-13T00:25:08.384Z,14.46
2018-05-13T00:25:12.701Z,14.45
2018-05-13T00:25:17.004Z,14.46
2018-05-13T00:25:21.104Z,14.46
2018-05-13T00:25:25.337Z,14.46
2018-05-13T00:25:29.554Z,14.47
2018-05-13T00:25:33.659Z,14.46
2018-05-13T00:25:37.972Z,14.47
2018-05-13T00:25:42.216Z,14.46
2018-05-13T00:25:46.317Z,14.46
2018-05-13T00:25:50.643Z,14.46
2018-05-13T00:25:54.742Z,14.46
2018-05-13T00:25:58.953Z,14.46
2018-05-13T00:26:03.370Z,14.46
2018-05-13T00:26:07.582Z,14.47
2018-05-13T00:26:11.791Z,14.47
2018-05-13T00:26:16.104Z,14.47
2018-05-13T00:26:20.421Z,14.47
2018-05-13T00:26:24.523Z,14.47
2018-05-13T00:26:28.731Z,14.46
2018-05-13T00:26:32.945Z,14.47
2018-05-13T00:26:37.265Z,14.47
2018-05-13T00:26:41.471Z,14.47
2018-05-13T00:26:45.681Z,14.47
2018-05-13T00:26:50.011Z,14.46
2018-05-13T00:26:54.335Z,14.47
2018-05-13T00:26:58.549Z,14.47
2018-05-13T00:27:02.805Z,14.47
2018-05-13T00:27:06.909Z,14.47
2018-05-13T00:27:11.121Z,14.46
2018-05-13T00:27:15.438Z,14.47
2018-05-13T00:27:19.544Z,14.47
2018-05-13T00:27:23.753Z,14.47
2018-05-13T00:27:28.072Z,14.46
2018-05-13T00:27:32.289Z,14.48
2018-05-13T00:27:36.399Z,14.47
2018-05-13T00:27:40.603Z,14.48
2018-05-13T00:27:44.920Z,14.48
2018-05-13T00:27:49.141Z,14.47
2018-05-13T00:27:53.459Z,14.48
2018-05-13T00:27:57.780Z,14.47
2018-05-13T00:28:01.986Z,14.47
2018-05-13T00:28:06.090Z,14.48
2018-05-13T00:28:10.419Z,14.48
2018-05-13T00:28:14.740Z,14.48
2018-05-13T00:28:19.058Z,14.48
2018-05-13T00:28:23.276Z,14.48
2018-05-13T00:28:27.596Z,14.49
2018-05-13T00:28:31.921Z,14.49
2018-05-13T00:28:36.030Z,14.47
2018-05-13T00:28:40.244Z,14.48
2018-05-13T00:28:44.453Z,14.48
2018-05-13T00:28:48.782Z,14.49
2018-05-13T00:28:53.095Z,14.48
2018-05-13T00:28:57.305Z,14.47
2018-05-13T00:29:01.638Z,14.48
2018-05-13T00:29:05.847Z,14.49
2018-05-13T00:29:10.056Z,14.48
2018-05-13T00:29:14.382Z,14.49
2018-05-13T00:29:18.701Z,14.49
2018-05-13T00:29:23.063Z,14.49
2018-05-13T00:29:27.201Z,14.49
2018-05-13T00:29:31.418Z,14.5
2018-05-13T00:29:35.631Z,14.5
2018-05-13T00:29:39.953Z,14.5
2018-05-13T00:29:44.165Z,14.49
2018-05-13T00:29:48.480Z,14.5
2018-05-13T00:29:52.795Z,14.5
2018-05-13T00:29:57.016Z,14.5
2018-05-13T00:30:01.305Z,14.51
2018-05-13T00:30:05.422Z,14.51
2018-05-13T00:30:09.742Z,14.51
2018-05-13T00:30:14.068Z,14.5
2018-05-13T00:30:18.285Z,14.51
2018-05-13T00:30:22.170Z,14.51
2018-05-13T00:30:26.275Z,14.51
2018-05-13T00:30:30.494Z,14.51
2018-05-13T00:30:34.737Z,14.52
2018-05-13T00:30:39.066Z,14.52
2018-05-13T00:30:43.389Z,14.52
2018-05-13T00:30:47.497Z,14.52
2018-05-13T00:30:51.817Z,14.52
2018-05-13T00:30:56.031Z,14.52
2018-05-13T00:31:00.352Z,14.52
2018-05-13T00:31:04.444Z,14.53
2018-05-13T00:31:08.545Z,14.53
2018-05-13T00:31:12.866Z,14.53
2018-05-13T00:31:17.197Z,14.53
2018-05-13T00:31:21.555Z,14.53
2018-05-13T00:31:25.791Z,14.54
2018-05-13T00:31:30.016Z,14.54
2018-05-13T00:31:34.228Z,14.53
2018-05-13T00:31:38.549Z,14.54
2018-05-13T00:31:42.761Z,14.54
2018-05-13T00:31:46.753Z,14.54
2018-05-13T00:31:51.071Z,14.55
2018-05-13T00:31:55.392Z,14.55
2018-05-13T00:31:59.500Z,14.55
2018-05-13T00:32:03.820Z,14.55
2018-05-13T00:32:08.046Z,14.55
2018-05-13T00:32:12.264Z,14.56
2018-05-13T00:32:16.583Z,14.56
2018-05-13T00:32:20.681Z,14.56
2018-05-13T00:32:25.007Z,14.56
2018-05-13T00:32:29.225Z,14.56
2018-05-13T00:32:33.444Z,14.56
2018-05-13T00:32:37.651Z,14.56
2018-05-13T00:32:41.646Z,14.56
2018-05-13T00:32:45.963Z,14.57
2018-05-13T00:32:50.177Z,14.56
2018-05-13T00:32:54.499Z,14.56
2018-05-13T00:32:58.817Z,14.56
2018-05-13T00:33:03.040Z,14.56
2018-05-13T00:33:07.255Z,14.57
2018-05-13T00:33:11.574Z,14.57
2018-05-13T00:33:15.796Z,14.58
2018-05-13T00:33:20.011Z,14.58
2018-05-13T00:33:24.225Z,14.57
2018-05-13T00:33:28.557Z,14.57
2018-05-13T00:33:32.869Z,14.58
2018-05-13T00:33:37.076Z,14.57
2018-05-13T00:33:41.400Z,14.59
2018-05-13T00:33:45.619Z,14.59
2018-05-13T00:33:49.941Z,14.59
2018-05-13T00:33:54.264Z,14.59
2018-05-13T00:33:58.475Z,14.59
2018-05-13T00:34:02.831Z,14.58
2018-05-13T00:34:06.719Z,14.59
2018-05-13T00:34:10.932Z,14.59
2018-05-13T00:34:15.032Z,14.59
2018-05-13T00:34:19.247Z,14.59
2018-05-13T00:34:23.567Z,14.59
2018-05-13T00:34:27.671Z,14.59
2018-05-13T00:34:31.885Z,14.59
2018-05-13T00:34:36.211Z,14.59
2018-05-13T00:34:40.421Z,14.58
2018-05-13T00:34:44.626Z,14.59
2018-05-13T00:34:48.947Z,14.59
2018-05-13T00:34:53.053Z,14.59
2018-05-13T00:34:57.377Z,14.6
2018-05-13T00:35:01.696Z,14.6
2018-05-13T00:35:05.694Z,14.6
2018-05-13T00:35:09.692Z,14.6
2018-05-13T00:35:13.912Z,14.6
2018-05-13T00:35:18.015Z,14.6
2018-05-13T00:35:22.230Z,14.6
2018-05-13T00:35:26.442Z,14.6
2018-05-13T00:35:30.762Z,14.61
2018-05-13T00:35:34.976Z,14.6
2018-05-13T00:35:39.185Z,14.6
2018-05-13T00:35:43.283Z,14.61
2018-05-13T00:35:47.390Z,14.6
2018-05-13T00:35:51.604Z,14.61
2018-05-13T00:35:55.826Z,14.61
2018-05-13T00:36:00.233Z,14.6
2018-05-13T00:36:04.451Z,14.6
2018-05-13T00:36:08.559Z,14.61
2018-05-13T00:36:12.771Z,14.61
2018-05-13T00:36:17.091Z,14.61
2018-05-13T00:36:21.301Z,14.62
2018-05-13T00:36:25.512Z,14.61
2018-05-13T00:36:29.617Z,14.62
2018-05-13T00:36:33.935Z,14.62
2018-05-13T00:36:37.930Z,14.62
2018-05-13T00:36:42.247Z,14.61
2018-05-13T00:36:46.457Z,14.62
2018-05-13T00:36:50.662Z,14.62
2018-05-13T00:36:54.875Z,14.63
2018-05-13T00:36:58.982Z,14.63
2018-05-13T00:37:02.985Z,14.62
2018-05-13T00:37:07.090Z,14.62
2018-05-13T00:37:11.310Z,14.63
2018-05-13T00:37:15.622Z,14.63
2018-05-13T00:37:19.940Z,14.63
2018-05-13T00:37:24.150Z,14.63
2018-05-13T00:37:28.363Z,14.63
2018-05-13T00:37:32.578Z,14.63
2018-05-13T00:37:36.903Z,14.63
2018-05-13T00:37:41.111Z,14.63
2018-05-13T00:37:45.505Z,14.63
2018-05-13T00:37:49.608Z,14.64
2018-05-13T00:37:53.832Z,14.64
2018-05-13T00:37:58.042Z,14.63
2018-05-13T00:38:02.454Z,14.63
2018-05-13T00:38:06.565Z,14.63
2018-05-13T00:38:10.671Z,14.63
2018-05-13T00:38:14.984Z,14.64
2018-05-13T00:38:19.088Z,14.64
2018-05-13T00:38:23.192Z,14.64
2018-05-13T00:38:27.513Z,14.64
2018-05-13T00:38:31.722Z,14.64
2018-05-13T00:38:36.041Z,14.64
2018-05-13T00:38:40.250Z,14.64
2018-05-13T00:38:44.588Z,14.64
2018-05-13T00:38:48.926Z,14.63
2018-05-13T00:38:53.251Z,14.64
2018-05-13T00:38:57.467Z,14.64
2018-05-13T00:39:01.565Z,14.64
2018-05-13T00:39:05.771Z,14.64
2018-05-13T00:39:10.094Z,14.65
2018-05-13T00:39:14.417Z,14.65
2018-05-13T00:39:18.579Z,14.65
2018-05-13T00:39:22.803Z,14.65
2018-05-13T00:39:26.900Z,14.65
2018-05-13T00:39:31.189Z,14.66
2018-05-13T00:39:35.297Z,14.65
2018-05-13T00:39:39.619Z,14.66
2018-05-13T00:39:43.939Z,14.66
2018-05-13T00:39:48.142Z,14.65
2018-05-13T00:39:52.362Z,14.66
2018-05-13T00:39:56.675Z,14.65
2018-05-13T00:40:00.996Z,14.66
2018-05-13T00:40:05.101Z,14.66
2018-05-13T00:40:09.095Z,14.66
2018-05-13T00:40:13.309Z,14.66
2018-05-13T00:40:17.624Z,14.67
2018-05-13T00:40:21.861Z,14.67
2018-05-13T00:40:26.067Z,14.67
2018-05-13T00:40:30.462Z,14.68
2018-05-13T00:40:34.564Z,14.68
2018-05-13T00:40:38.776Z,14.67
2018-05-13T00:40:42.987Z,14.67
2018-05-13T00:40:47.303Z,14.68
2018-05-13T00:40:51.516Z,14.68
2018-05-13T00:40:55.843Z,14.68
2018-05-13T00:40:59.943Z,14.69
2018-05-13T00:41:04.273Z,14.68
2018-05-13T00:41:08.486Z,14.69
2018-05-13T00:41:12.703Z,14.68
2018-05-13T00:41:17.020Z,14.69
2018-05-13T00:41:21.227Z,14.69
2018-05-13T00:41:25.445Z,14.69
2018-05-13T00:41:29.441Z,14.69
2018-05-13T00:41:33.839Z,14.7
2018-05-13T00:41:38.056Z,14.69
2018-05-13T00:41:42.168Z,14.7
2018-05-13T00:41:46.395Z,14.7
2018-05-13T00:41:50.505Z,14.7
2018-05-13T00:41:54.826Z,14.7
2018-05-13T00:41:59.035Z,14.71
2018-05-13T00:42:03.138Z,14.7
2018-05-13T00:42:07.250Z,14.71
2018-05-13T00:42:11.460Z,14.71
2018-05-13T00:42:15.669Z,14.71
2018-05-13T00:42:19.886Z,14.71
2018-05-13T00:42:24.203Z,14.71
2018-05-13T00:42:28.424Z,14.72
2018-05-13T00:42:32.639Z,14.71
2018-05-13T00:42:36.853Z,14.71
2018-05-13T00:42:41.175Z,14.71
2018-05-13T00:42:45.387Z,14.71
2018-05-13T00:42:49.381Z,14.72
2018-05-13T00:42:53.587Z,14.71
2018-05-13T00:42:57.906Z,14.72
2018-05-13T00:43:02.250Z,14.72
2018-05-13T00:43:06.467Z,14.72
2018-05-13T00:43:10.786Z,14.72
2018-05-13T00:43:14.997Z,14.72
2018-05-13T00:43:19.100Z,14.72
2018-05-13T00:43:23.420Z,14.72
2018-05-13T00:43:27.626Z,14.72
2018-05-13T00:43:31.942Z,14.73
2018-05-13T00:43:36.269Z,14.72
2018-05-13T00:43:40.375Z,14.73
2018-05-13T00:43:44.477Z,14.73
2018-05-13T00:43:48.683Z,14.72
2018-05-13T00:43:53.014Z,14.72
2018-05-13T00:43:57.337Z,14.73
2018-05-13T00:44:01.545Z,14.73
2018-05-13T00:44:05.648Z,14.73
2018-05-13T00:44:09.759Z,14.73
2018-05-13T00:44:14.164Z,14.73
2018-05-13T00:44:18.488Z,14.74
2018-05-13T00:44:22.812Z,14.75
2018-05-13T00:44:27.134Z,14.74
2018-05-13T00:44:31.344Z,14.74
2018-05-13T00:44:35.663Z,14.74
2018-05-13T00:44:39.985Z,14.74
2018-05-13T00:44:44.192Z,14.73
2018-05-13T00:44:48.409Z,14.73
2018-05-13T00:44:52.732Z,14.73
2018-05-13T00:44:57.052Z,14.73
2018-05-13T00:45:01.268Z,14.74
2018-05-13T00:45:05.500Z,14.74
2018-05-13T00:45:09.494Z,14.74
2018-05-13T00:45:13.820Z,14.75
2018-05-13T00:45:18.157Z,14.75
2018-05-13T00:45:22.423Z,14.75
2018-05-13T00:45:26.644Z,14.75
2018-05-13T00:45:30.743Z,14.74
2018-05-13T00:45:35.066Z,14.75
2018-05-13T00:45:39.271Z,14.75
2018-05-13T00:45:43.483Z,14.76
2018-05-13T00:45:47.800Z,14.75
2018-05-13T00:45:52.018Z,14.75
2018-05-13T00:45:56.231Z,14.75
2018-05-13T00:46:00.556Z,14.75
2018-05-13T00:46:04.667Z,14.74
2018-05-13T00:46:08.881Z,14.75
2018-05-13T00:46:12.987Z,14.75
2018-05-13T00:46:17.312Z,14.74
2018-05-13T00:46:21.314Z,14.75
2018-05-13T00:46:25.719Z,14.75
2018-05-13T00:46:29.932Z,14.75
2018-05-13T00:46:34.259Z,14.75
2018-05-13T00:46:38.466Z,14.74
2018-05-13T00:46:42.674Z,14.75
2018-05-13T00:46:46.783Z,14.75
2018-05-13T00:46:51.097Z,14.74
2018-05-13T00:46:55.201Z,14.75
2018-05-13T00:46:59.526Z,14.75
2018-05-13T00:47:03.845Z,14.75
2018-05-13T00:47:08.051Z,14.74
2018-05-13T00:47:12.266Z,14.74
2018-05-13T00:47:16.487Z,14.75
2018-05-13T00:47:20.588Z,14.75
2018-05-13T00:47:24.905Z,14.73
2018-05-13T00:47:29.113Z,14.75
2018-05-13T00:47:33.210Z,14.74
2018-05-13T00:47:37.307Z,14.73
2018-05-13T00:47:41.406Z,14.73
2018-05-13T00:47:45.735Z,14.74
2018-05-13T00:47:49.944Z,14.73
2018-05-13T00:47:54.268Z,14.73
2018-05-13T00:47:58.480Z,14.72
2018-05-13T00:48:02.582Z,14.73
2018-05-13T00:48:06.687Z,14.73
2018-05-13T00:48:10.898Z,14.73
2018-05-13T00:48:15.292Z,14.73
2018-05-13T00:48:19.511Z,14.73
2018-05-13T00:48:23.821Z,14.72
2018-05-13T00:48:28.229Z,14.72
2018-05-13T00:48:32.548Z,14.71
2018-05-13T00:48:36.751Z,14.72
2018-05-13T00:48:41.067Z,14.72
2018-05-13T00:48:45.391Z,14.72
2018-05-13T00:48:49.605Z,14.72
2018-05-13T00:48:53.705Z,14.71
2018-05-13T00:48:57.916Z,14.72
2018-05-13T00:49:02.232Z,14.71
2018-05-13T00:49:06.451Z,14.72
2018-05-13T00:49:10.556Z,14.71
2018-05-13T00:49:14.881Z,14.71
2018-05-13T00:49:18.989Z,14.71
2018-05-13T00:49:23.197Z,14.71
2018-05-13T00:49:27.406Z,14.71
2018-05-13T00:49:31.684Z,14.71
2018-05-13T00:49:35.793Z,14.7
2018-05-13T00:49:40.001Z,14.7
2018-05-13T00:49:44.316Z,14.7
2018-05-13T00:49:48.532Z,14.7
2018-05-13T00:49:52.754Z,14.71
2018-05-13T00:49:57.081Z,14.69
2018-05-13T00:50:01.300Z,14.7
2018-05-13T00:50:05.405Z,14.69
2018-05-13T00:50:09.628Z,14.69
2018-05-13T00:50:13.842Z,14.69
2018-05-13T00:50:18.054Z,14.69
2018-05-13T00:50:22.261Z,14.69
2018-05-13T00:50:26.577Z,14.7
2018-05-13T00:50:30.913Z,14.69
2018-05-13T00:50:35.720Z,14.68
2018-05-13T00:50:40.142Z,14.68
2018-05-13T00:50:45.000Z,14.68
2018-05-13T00:50:49.518Z,14.68
2018-05-13T00:50:53.731Z,14.67
2018-05-13T00:50:58.051Z,14.67
2018-05-13T00:51:02.263Z,14.68
2018-05-13T00:51:06.596Z,14.67
2018-05-13T00:51:10.918Z,14.67
2018-05-13T00:51:15.020Z,14.66
2018-05-13T00:51:19.187Z,14.67
2018-05-13T00:51:23.426Z,14.66
2018-05-13T00:51:27.740Z,14.65
2018-05-13T00:51:31.956Z,14.65
2018-05-13T00:51:36.162Z,14.66
2018-05-13T00:51:40.369Z,14.66
2018-05-13T00:51:44.576Z,14.65
2018-05-13T00:51:48.895Z,14.65
2018-05-13T00:51:53.211Z,14.65
2018-05-13T00:51:57.522Z,14.64
2018-05-13T00:52:01.846Z,14.63
2018-05-13T00:52:06.066Z,14.64
2018-05-13T00:52:10.166Z,14.64
2018-05-13T00:52:14.493Z,14.64
2018-05-13T00:52:18.720Z,14.63
2018-05-13T00:52:22.939Z,14.63
2018-05-13T00:52:27.206Z,14.63
2018-05-13T00:52:31.532Z,14.64
2018-05-13T00:52:35.751Z,14.63
2018-05-13T00:52:39.964Z,14.63
2018-05-13T00:52:44.173Z,14.62
2018-05-13T00:52:48.379Z,14.62
2018-05-13T00:52:52.489Z,14.63
2018-05-13T00:52:56.695Z,14.62
2018-05-13T00:53:00.907Z,14.61
2018-05-13T00:53:05.234Z,14.62
2018-05-13T00:53:09.451Z,14.61
2018-05-13T00:53:13.660Z,14.61
2018-05-13T00:53:17.982Z,14.61
2018-05-13T00:53:22.188Z,14.61
2018-05-13T00:53:26.298Z,14.6
2018-05-13T00:53:30.618Z,14.6
2018-05-13T00:53:34.958Z,14.6
2018-05-13T00:53:39.171Z,14.6
2018-05-13T00:53:43.389Z,14.6
2018-05-13T00:53:47.605Z,14.59
2018-05-13T00:53:51.828Z,14.59
2018-05-13T00:53:56.144Z,14.59
2018-05-13T00:54:00.456Z,14.58
2018-05-13T00:54:04.448Z,14.59
2018-05-13T00:54:08.661Z,14.59
2018-05-13T00:54:12.661Z,14.58
2018-05-13T00:54:16.873Z,14.58
2018-05-13T00:54:21.194Z,14.57
2018-05-13T00:54:25.325Z,14.58
2018-05-13T00:54:29.448Z,14.58
2018-05-13T00:54:33.656Z,14.58
2018-05-13T00:54:37.972Z,14.56
2018-05-13T00:54:42.181Z,14.57
2018-05-13T00:54:46.395Z,14.56
2018-05-13T00:54:50.497Z,14.55
2018-05-13T00:54:54.712Z,14.56
2018-05-13T00:54:59.049Z,14.56
2018-05-13T00:55:02.941Z,14.56
2018-05-13T00:55:07.042Z,14.56
2018-05-13T00:55:11.145Z,14.56